KAPA/APA METAR and TAF weather

Enter ICAO airport designator
Station Type Date Time Source
KAPA METAR 2021/07/28 18:53 UTC NOAA

KAPA 281853Z 01010G15KT 10SM FEW080 33/08 A3020 RMK AO2 SLP135 T03330083


Station Type Date Time Source
KAPA Decoded METAR 2021/07/28 18:53 UTC NOAA

DENVER CENTENNIAL AIRPORT, CO, United States (KAPA) 39-34N 104-51W 1775M
Jul 28, 2021 - 02:53 PM EDT / 2021.07.28 1853 UTC
Wind: from the N (010 degrees) at 12 MPH (10 KT) gusting to 17 MPH (15 KT):0
Visibility: 10 mile(s):0
Sky conditions: mostly clear
Temperature: 91.9 F (33.3 C)
Dew Point: 46.9 F (8.3 C)
Relative Humidity: 21%
Pressure (altimeter): 30.2 in. Hg (1022 hPa)
ob: KAPA 281853Z 01010G15KT 10SM FEW080 33/08 A3020 RMK AO2 SLP135 T03330083
cycle: 19

Station Type Date Time Source
KAPA TAF 2021/07/28 18:48 UTC NOAA

TAF KAPA 281745Z 2818/2918 36004KT P6SM SKC
FM281900 01010KT P6SM FEW080 FEW220
FM282200 04010KT P6SM FEW080 SCT220
FM290300 15011KT P6SM FEW080 FEW220
FM290700 18008KT P6SM FEW220
FM291300 29008KT P6SM FEW220
FM291600 35008KT P6SM FEW220

Example: see airport list